sensor_id;sensor_type;location;lat;lon;timestamp;P1;durP1;ratioP1;P2;durP2;ratioP2
23288;SDS011;11813;50.834;4.280;2022-09-09T00:03:54;6.13;;;1.67;;
23288;SDS011;11813;50.834;4.280;2022-09-09T00:06:42;5.37;;;1.87;;
23288;SDS011;11813;50.834;4.280;2022-09-09T00:09:16;6.27;;;1.80;;
23288;SDS011;11813;50.834;4.280;2022-09-09T00:11:45;1.83;;;1.43;;
23288;SDS011;11813;50.834;4.280;2022-09-09T00:14:24;7.27;;;1.60;;
23288;SDS011;11813;50.834;4.280;2022-09-09T00:16:59;4.53;;;1.83;;
23288;SDS011;11813;50.834;4.280;2022-09-09T00:19:33;5.80;;;1.90;;
23288;SDS011;11813;50.834;4.280;2022-09-09T00:22:16;5.20;;;1.90;;
23288;SDS011;11813;50.834;4.280;2022-09-09T00:27:59;4.27;;;1.73;;
23288;SDS011;11813;50.834;4.280;2022-09-09T00:30:26;4.77;;;2.00;;
23288;SDS011;11813;50.834;4.280;2022-09-09T00:32:59;6.33;;;1.80;;
23288;SDS011;11813;50.834;4.280;2022-09-09T00:35:31;8.30;;;2.00;;
23288;SDS011;11813;50.834;4.280;2022-09-09T00:38:01;8.20;;;1.97;;
23288;SDS011;11813;50.834;4.280;2022-09-09T00:49:27;5.37;;;1.70;;
23288;SDS011;11813;50.834;4.280;2022-09-09T00:58:07;5.53;;;1.80;;
23288;SDS011;11813;50.834;4.280;2022-09-09T01:00:44;10.60;;;2.07;;
23288;SDS011;11813;50.834;4.280;2022-09-09T01:03:19;8.80;;;2.00;;
23288;SDS011;11813;50.834;4.280;2022-09-09T01:08:39;4.43;;;1.60;;
23288;SDS011;11813;50.834;4.280;2022-09-09T01:11:26;6.27;;;1.87;;
23288;SDS011;11813;50.834;4.280;2022-09-09T01:14:35;3.03;;;1.50;;
23288;SDS011;11813;50.834;4.280;2022-09-09T01:19:55;7.40;;;2.10;;
23288;SDS011;11813;50.834;4.280;2022-09-09T01:22:47;5.87;;;1.70;;
23288;SDS011;11813;50.834;4.280;2022-09-09T01:25:19;5.57;;;1.57;;
23288;SDS011;11813;50.834;4.280;2022-09-09T01:27:57;5.67;;;1.83;;
23288;SDS011;11813;50.834;4.280;2022-09-09T01:30:25;3.07;;;1.80;;
23288;SDS011;11813;50.834;4.280;2022-09-09T01:32:56;4.03;;;1.60;;
23288;SDS011;11813;50.834;4.280;2022-09-09T01:38:12;9.57;;;2.10;;
23288;SDS011;11813;50.834;4.280;2022-09-09T01:40:38;5.33;;;2.10;;
23288;SDS011;11813;50.834;4.280;2022-09-09T01:43:04;9.23;;;2.13;;
23288;SDS011;11813;50.834;4.280;2022-09-09T01:45:31;6.87;;;1.80;;
23288;SDS011;11813;50.834;4.280;2022-09-09T01:47:57;7.07;;;1.97;;
23288;SDS011;11813;50.834;4.280;2022-09-09T01:50:24;8.67;;;2.00;;
23288;SDS011;11813;50.834;4.280;2022-09-09T01:52:51;5.80;;;2.20;;
23288;SDS011;11813;50.834;4.280;2022-09-09T01:55:23;6.73;;;2.50;;
23288;SDS011;11813;50.834;4.280;2022-09-09T01:58:10;8.57;;;2.40;;
23288;SDS011;11813;50.834;4.280;2022-09-09T02:03:37;9.63;;;2.40;;
23288;SDS011;11813;50.834;4.280;2022-09-09T02:06:08;8.93;;;2.53;;
23288;SDS011;11813;50.834;4.280;2022-09-09T02:08:49;9.70;;;2.30;;
23288;SDS011;11813;50.834;4.280;2022-09-09T02:11:18;8.77;;;2.30;;
23288;SDS011;11813;50.834;4.280;2022-09-09T02:13:47;7.57;;;2.33;;
23288;SDS011;11813;50.834;4.280;2022-09-09T02:19:06;7.50;;;2.47;;
23288;SDS011;11813;50.834;4.280;2022-09-09T02:21:42;8.80;;;2.77;;
23288;SDS011;11813;50.834;4.280;2022-09-09T02:24:10;13.57;;;3.00;;
23288;SDS011;11813;50.834;4.280;2022-09-09T02:26:40;8.30;;;2.70;;
23288;SDS011;11813;50.834;4.280;2022-09-09T02:29:11;11.83;;;2.73;;
23288;SDS011;11813;50.834;4.280;2022-09-09T02:31:39;10.50;;;2.87;;
23288;SDS011;11813;50.834;4.280;2022-09-09T02:34:07;6.07;;;2.50;;
23288;SDS011;11813;50.834;4.280;2022-09-09T02:36:36;9.47;;;2.60;;
23288;SDS011;11813;50.834;4.280;2022-09-09T02:39:04;9.83;;;2.77;;
23288;SDS011;11813;50.834;4.280;2022-09-09T02:41:33;10.20;;;2.70;;
23288;SDS011;11813;50.834;4.280;2022-09-09T02:44:00;9.60;;;2.83;;
23288;SDS011;11813;50.834;4.280;2022-09-09T02:46:32;8.77;;;2.57;;
23288;SDS011;11813;50.834;4.280;2022-09-09T02:56:39;13.60;;;2.90;;
23288;SDS011;11813;50.834;4.280;2022-09-09T02:59:09;7.13;;;2.33;;
23288;SDS011;11813;50.834;4.280;2022-09-09T03:01:35;10.33;;;2.63;;
23288;SDS011;11813;50.834;4.280;2022-09-09T03:04:01;11.57;;;2.80;;
23288;SDS011;11813;50.834;4.280;2022-09-09T03:06:30;9.60;;;2.57;;
23288;SDS011;11813;50.834;4.280;2022-09-09T03:08:55;7.87;;;2.40;;
23288;SDS011;11813;50.834;4.280;2022-09-09T03:11:22;9.50;;;2.23;;
23288;SDS011;11813;50.834;4.280;2022-09-09T03:13:47;6.17;;;2.33;;
23288;SDS011;11813;50.834;4.280;2022-09-09T03:16:14;11.70;;;2.57;;
23288;SDS011;11813;50.834;4.280;2022-09-09T03:18:40;14.33;;;2.87;;
23288;SDS011;11813;50.834;4.280;2022-09-09T03:21:05;12.40;;;2.87;;
23288;SDS011;11813;50.834;4.280;2022-09-09T03:23:31;11.87;;;3.20;;
23288;SDS011;11813;50.834;4.280;2022-09-09T03:25:57;7.50;;;2.73;;
23288;SDS011;11813;50.834;4.280;2022-09-09T03:28:23;15.37;;;2.77;;
23288;SDS011;11813;50.834;4.280;2022-09-09T03:30:57;9.13;;;2.53;;
23288;SDS011;11813;50.834;4.280;2022-09-09T03:33:24;6.80;;;2.50;;
23288;SDS011;11813;50.834;4.280;2022-09-09T03:35:49;8.80;;;2.40;;
23288;SDS011;11813;50.834;4.280;2022-09-09T03:38:15;13.30;;;3.33;;
23288;SDS011;11813;50.834;4.280;2022-09-09T03:40:48;5.93;;;2.47;;
23288;SDS011;11813;50.834;4.280;2022-09-09T03:43:15;11.47;;;2.93;;
23288;SDS011;11813;50.834;4.280;2022-09-09T03:45:44;11.87;;;3.43;;
23288;SDS011;11813;50.834;4.280;2022-09-09T03:48:12;16.00;;;3.37;;
23288;SDS011;11813;50.834;4.280;2022-09-09T03:50:38;7.83;;;2.47;;
23288;SDS011;11813;50.834;4.280;2022-09-09T03:53:03;10.53;;;3.00;;
23288;SDS011;11813;50.834;4.280;2022-09-09T03:55:30;11.67;;;2.70;;
23288;SDS011;11813;50.834;4.280;2022-09-09T03:57:57;11.47;;;2.83;;
23288;SDS011;11813;50.834;4.280;2022-09-09T04:00:23;14.10;;;2.67;;
23288;SDS011;11813;50.834;4.280;2022-09-09T04:02:48;7.13;;;3.20;;
23288;SDS011;11813;50.834;4.280;2022-09-09T04:05:14;6.63;;;2.20;;
23288;SDS011;11813;50.834;4.280;2022-09-09T04:07:40;9.07;;;2.53;;
23288;SDS011;11813;50.834;4.280;2022-09-09T04:10:06;11.07;;;2.30;;
23288;SDS011;11813;50.834;4.280;2022-09-09T04:12:33;9.37;;;2.60;;
23288;SDS011;11813;50.834;4.280;2022-09-09T04:14:59;18.50;;;3.40;;
23288;SDS011;11813;50.834;4.280;2022-09-09T04:17:27;12.43;;;3.27;;
23288;SDS011;11813;50.834;4.280;2022-09-09T04:19:52;12.90;;;3.23;;
23288;SDS011;11813;50.834;4.280;2022-09-09T04:22:18;11.27;;;2.80;;
23288;SDS011;11813;50.834;4.280;2022-09-09T04:24:44;9.77;;;2.20;;
23288;SDS011;11813;50.834;4.280;2022-09-09T04:27:09;8.97;;;2.93;;
23288;SDS011;11813;50.834;4.280;2022-09-09T04:29:35;11.13;;;2.60;;
23288;SDS011;11813;50.834;4.280;2022-09-09T04:32:00;6.57;;;2.80;;
23288;SDS011;11813;50.834;4.280;2022-09-09T04:34:26;12.43;;;2.90;;
23288;SDS011;11813;50.834;4.280;2022-09-09T04:36:51;6.40;;;2.67;;
23288;SDS011;11813;50.834;4.280;2022-09-09T04:39:17;7.83;;;3.00;;
23288;SDS011;11813;50.834;4.280;2022-09-09T04:41:43;11.73;;;3.10;;
23288;SDS011;11813;50.834;4.280;2022-09-09T04:44:08;12.67;;;3.40;;
23288;SDS011;11813;50.834;4.280;2022-09-09T04:46:35;14.67;;;3.13;;
23288;SDS011;11813;50.834;4.280;2022-09-09T04:49:00;15.57;;;3.40;;
23288;SDS011;11813;50.834;4.280;2022-09-09T04:51:26;14.40;;;3.57;;
23288;SDS011;11813;50.834;4.280;2022-09-09T04:53:51;13.07;;;3.97;;
23288;SDS011;11813;50.834;4.280;2022-09-09T04:56:18;14.60;;;3.73;;
23288;SDS011;11813;50.834;4.280;2022-09-09T04:58:44;13.17;;;3.77;;
23288;SDS011;11813;50.834;4.280;2022-09-09T05:01:20;14.20;;;4.00;;
23288;SDS011;11813;50.834;4.280;2022-09-09T05:03:47;12.10;;;3.50;;
23288;SDS011;11813;50.834;4.280;2022-09-09T05:06:16;12.03;;;3.63;;
23288;SDS011;11813;50.834;4.280;2022-09-09T05:08:43;10.93;;;3.30;;
23288;SDS011;11813;50.834;4.280;2022-09-09T05:11:29;15.13;;;4.30;;
23288;SDS011;11813;50.834;4.280;2022-09-09T05:13:57;10.23;;;3.23;;
23288;SDS011;11813;50.834;4.280;2022-09-09T05:16:22;16.37;;;4.07;;
23288;SDS011;11813;50.834;4.280;2022-09-09T05:18:48;11.43;;;4.17;;
23288;SDS011;11813;50.834;4.280;2022-09-09T05:21:16;15.20;;;4.13;;
23288;SDS011;11813;50.834;4.280;2022-09-09T05:23:42;13.00;;;3.47;;
23288;SDS011;11813;50.834;4.280;2022-09-09T05:26:11;10.53;;;3.30;;
23288;SDS011;11813;50.834;4.280;2022-09-09T05:28:38;13.93;;;3.53;;
23288;SDS011;11813;50.834;4.280;2022-09-09T05:31:05;19.03;;;4.03;;
23288;SDS011;11813;50.834;4.280;2022-09-09T05:33:37;9.50;;;3.27;;
23288;SDS011;11813;50.834;4.280;2022-09-09T05:36:06;12.43;;;3.20;;
23288;SDS011;11813;50.834;4.280;2022-09-09T05:38:33;13.23;;;3.37;;
23288;SDS011;11813;50.834;4.280;2022-09-09T05:41:00;11.60;;;3.23;;
23288;SDS011;11813;50.834;4.280;2022-09-09T05:43:27;9.27;;;3.17;;
23288;SDS011;11813;50.834;4.280;2022-09-09T05:46:00;17.60;;;3.77;;
23288;SDS011;11813;50.834;4.280;2022-09-09T05:48:29;12.50;;;3.60;;
23288;SDS011;11813;50.834;4.280;2022-09-09T05:50:56;10.80;;;3.33;;
23288;SDS011;11813;50.834;4.280;2022-09-09T05:53:22;12.40;;;3.83;;
23288;SDS011;11813;50.834;4.280;2022-09-09T05:55:47;17.73;;;4.00;;
23288;SDS011;11813;50.834;4.280;2022-09-09T05:58:14;16.67;;;3.57;;
23288;SDS011;11813;50.834;4.280;2022-09-09T06:00:41;15.47;;;4.27;;
23288;SDS011;11813;50.834;4.280;2022-09-09T06:03:09;11.37;;;3.27;;
23288;SDS011;11813;50.834;4.280;2022-09-09T06:05:36;11.27;;;3.27;;
23288;SDS011;11813;50.834;4.280;2022-09-09T06:08:02;19.77;;;3.80;;
23288;SDS011;11813;50.834;4.280;2022-09-09T06:10:28;13.30;;;2.97;;
23288;SDS011;11813;50.834;4.280;2022-09-09T06:12:54;11.80;;;3.03;;
23288;SDS011;11813;50.834;4.280;2022-09-09T06:15:20;11.53;;;3.27;;
23288;SDS011;11813;50.834;4.280;2022-09-09T06:17:46;13.83;;;3.17;;
23288;SDS011;11813;50.834;4.280;2022-09-09T06:20:12;16.57;;;3.50;;
23288;SDS011;11813;50.834;4.280;2022-09-09T06:22:39;7.90;;;2.90;;
23288;SDS011;11813;50.834;4.280;2022-09-09T06:25:06;14.53;;;3.50;;
23288;SDS011;11813;50.834;4.280;2022-09-09T06:27:33;11.90;;;3.27;;
23288;SDS011;11813;50.834;4.280;2022-09-09T06:29:58;9.37;;;3.83;;
23288;SDS011;11813;50.834;4.280;2022-09-09T06:32:24;11.33;;;3.00;;
23288;SDS011;11813;50.834;4.280;2022-09-09T06:34:51;8.67;;;3.07;;
23288;SDS011;11813;50.834;4.280;2022-09-09T06:37:17;9.13;;;2.97;;
23288;SDS011;11813;50.834;4.280;2022-09-09T06:39:43;15.90;;;3.00;;
23288;SDS011;11813;50.834;4.280;2022-09-09T06:42:09;12.93;;;3.70;;
23288;SDS011;11813;50.834;4.280;2022-09-09T06:44:34;8.67;;;3.10;;
23288;SDS011;11813;50.834;4.280;2022-09-09T06:47:01;9.40;;;3.13;;
23288;SDS011;11813;50.834;4.280;2022-09-09T06:49:26;17.53;;;3.37;;
23288;SDS011;11813;50.834;4.280;2022-09-09T06:51:52;10.87;;;3.10;;
23288;SDS011;11813;50.834;4.280;2022-09-09T06:54:18;12.33;;;2.90;;
23288;SDS011;11813;50.834;4.280;2022-09-09T06:56:44;9.97;;;2.67;;
23288;SDS011;11813;50.834;4.280;2022-09-09T06:59:10;10.47;;;3.70;;
23288;SDS011;11813;50.834;4.280;2022-09-09T07:01:41;13.97;;;3.30;;
23288;SDS011;11813;50.834;4.280;2022-09-09T07:04:08;8.50;;;3.10;;
23288;SDS011;11813;50.834;4.280;2022-09-09T07:06:43;12.17;;;3.10;;
23288;SDS011;11813;50.834;4.280;2022-09-09T07:09:11;16.20;;;3.07;;
23288;SDS011;11813;50.834;4.280;2022-09-09T07:11:38;12.07;;;3.30;;
23288;SDS011;11813;50.834;4.280;2022-09-09T07:14:09;8.57;;;2.80;;
23288;SDS011;11813;50.834;4.280;2022-09-09T07:16:37;7.33;;;3.03;;
23288;SDS011;11813;50.834;4.280;2022-09-09T07:19:04;11.90;;;3.03;;
23288;SDS011;11813;50.834;4.280;2022-09-09T07:21:30;11.00;;;2.83;;
23288;SDS011;11813;50.834;4.280;2022-09-09T07:23:57;12.20;;;2.40;;
23288;SDS011;11813;50.834;4.280;2022-09-09T07:26:24;9.27;;;2.70;;
23288;SDS011;11813;50.834;4.280;2022-09-09T07:28:51;6.90;;;2.27;;
23288;SDS011;11813;50.834;4.280;2022-09-09T07:31:18;7.67;;;2.63;;
23288;SDS011;11813;50.834;4.280;2022-09-09T07:33:46;13.53;;;2.87;;
23288;SDS011;11813;50.834;4.280;2022-09-09T07:36:14;11.47;;;2.83;;
23288;SDS011;11813;50.834;4.280;2022-09-09T07:38:48;7.27;;;2.70;;
23288;SDS011;11813;50.834;4.280;2022-09-09T07:41:23;9.87;;;2.93;;
23288;SDS011;11813;50.834;4.280;2022-09-09T07:43:51;6.80;;;2.33;;
23288;SDS011;11813;50.834;4.280;2022-09-09T07:46:19;9.17;;;2.97;;
23288;SDS011;11813;50.834;4.280;2022-09-09T07:48:49;7.47;;;3.47;;
23288;SDS011;11813;50.834;4.280;2022-09-09T07:51:20;13.00;;;3.60;;
23288;SDS011;11813;50.834;4.280;2022-09-09T07:53:51;9.83;;;3.20;;
23288;SDS011;11813;50.834;4.280;2022-09-09T07:56:18;10.27;;;3.20;;
23288;SDS011;11813;50.834;4.280;2022-09-09T07:58:47;11.90;;;3.00;;
23288;SDS011;11813;50.834;4.280;2022-09-09T08:01:18;10.77;;;3.30;;
23288;SDS011;11813;50.834;4.280;2022-09-09T08:03:51;10.33;;;2.93;;
23288;SDS011;11813;50.834;4.280;2022-09-09T08:06:19;10.77;;;3.47;;
23288;SDS011;11813;50.834;4.280;2022-09-09T08:08:45;13.43;;;3.60;;
23288;SDS011;11813;50.834;4.280;2022-09-09T08:11:15;10.73;;;2.87;;
23288;SDS011;11813;50.834;4.280;2022-09-09T08:13:41;15.73;;;3.77;;
23288;SDS011;11813;50.834;4.280;2022-09-09T08:16:09;7.00;;;2.67;;
23288;SDS011;11813;50.834;4.280;2022-09-09T08:18:36;11.70;;;3.10;;
23288;SDS011;11813;50.834;4.280;2022-09-09T08:21:07;12.03;;;3.20;;
23288;SDS011;11813;50.834;4.280;2022-09-09T08:23:37;12.27;;;3.03;;
23288;SDS011;11813;50.834;4.280;2022-09-09T08:26:14;16.50;;;4.00;;
23288;SDS011;11813;50.834;4.280;2022-09-09T08:28:42;12.23;;;3.10;;
23288;SDS011;11813;50.834;4.280;2022-09-09T08:31:19;10.00;;;3.83;;
23288;SDS011;11813;50.834;4.280;2022-09-09T08:33:46;12.40;;;3.13;;
23288;SDS011;11813;50.834;4.280;2022-09-09T08:36:19;9.83;;;2.93;;
23288;SDS011;11813;50.834;4.280;2022-09-09T08:38:50;12.43;;;2.90;;
23288;SDS011;11813;50.834;4.280;2022-09-09T08:44:10;10.33;;;3.90;;
23288;SDS011;11813;50.834;4.280;2022-09-09T08:52:16;12.33;;;3.40;;
23288;SDS011;11813;50.834;4.280;2022-09-09T08:54:47;13.83;;;3.10;;
23288;SDS011;11813;50.834;4.280;2022-09-09T08:57:20;11.33;;;3.40;;
23288;SDS011;11813;50.834;4.280;2022-09-09T08:59:53;10.90;;;3.03;;
23288;SDS011;11813;50.834;4.280;2022-09-09T09:12:35;12.07;;;2.90;;
23288;SDS011;11813;50.834;4.280;2022-09-09T09:15:11;12.63;;;3.80;;
23288;SDS011;11813;50.834;4.280;2022-09-09T09:17:43;10.47;;;3.50;;
23288;SDS011;11813;50.834;4.280;2022-09-09T09:20:13;13.83;;;3.27;;
23288;SDS011;11813;50.834;4.280;2022-09-09T09:25:20;12.33;;;3.33;;
23288;SDS011;11813;50.834;4.280;2022-09-09T09:30:32;8.93;;;2.97;;
23288;SDS011;11813;50.834;4.280;2022-09-09T09:35:56;9.10;;;2.90;;
23288;SDS011;11813;50.834;4.280;2022-09-09T09:38:25;14.23;;;3.43;;
23288;SDS011;11813;50.834;4.280;2022-09-09T09:40:53;10.10;;;3.47;;
23288;SDS011;11813;50.834;4.280;2022-09-09T09:43:32;6.70;;;2.37;;
23288;SDS011;11813;50.834;4.280;2022-09-09T09:46:05;13.33;;;3.03;;
23288;SDS011;11813;50.834;4.280;2022-09-09T09:48:43;5.37;;;2.67;;
23288;SDS011;11813;50.834;4.280;2022-09-09T09:51:10;9.83;;;3.50;;
23288;SDS011;11813;50.834;4.280;2022-09-09T09:53:40;9.37;;;3.20;;
23288;SDS011;11813;50.834;4.280;2022-09-09T09:56:08;11.50;;;3.17;;
23288;SDS011;11813;50.834;4.280;2022-09-09T09:58:48;12.43;;;2.90;;
23288;SDS011;11813;50.834;4.280;2022-09-09T10:01:20;6.97;;;2.57;;
23288;SDS011;11813;50.834;4.280;2022-09-09T10:03:54;9.70;;;2.67;;
23288;SDS011;11813;50.834;4.280;2022-09-09T10:09:00;10.93;;;2.43;;
23288;SDS011;11813;50.834;4.280;2022-09-09T10:11:44;8.90;;;2.57;;
23288;SDS011;11813;50.834;4.280;2022-09-09T10:14:21;10.17;;;2.53;;
23288;SDS011;11813;50.834;4.280;2022-09-09T10:22:40;9.17;;;2.63;;
23288;SDS011;11813;50.834;4.280;2022-09-09T10:31:05;10.60;;;2.83;;
23288;SDS011;11813;50.834;4.280;2022-09-09T10:36:36;14.07;;;3.20;;
23288;SDS011;11813;50.834;4.280;2022-09-09T10:42:06;10.23;;;2.63;;
23288;SDS011;11813;50.834;4.280;2022-09-09T10:44:54;11.97;;;2.53;;
23288;SDS011;11813;50.834;4.280;2022-09-09T10:47:29;8.23;;;2.93;;
23288;SDS011;11813;50.834;4.280;2022-09-09T10:56:06;10.27;;;2.57;;
23288;SDS011;11813;50.834;4.280;2022-09-09T11:01:11;13.67;;;3.13;;
23288;SDS011;11813;50.834;4.280;2022-09-09T11:03:45;12.67;;;2.80;;
23288;SDS011;11813;50.834;4.280;2022-09-09T11:06:19;6.97;;;2.37;;
23288;SDS011;11813;50.834;4.280;2022-09-09T11:08:48;6.60;;;2.37;;
23288;SDS011;11813;50.834;4.280;2022-09-09T11:16:22;5.33;;;2.17;;
23288;SDS011;11813;50.834;4.280;2022-09-09T11:18:58;8.83;;;2.43;;
23288;SDS011;11813;50.834;4.280;2022-09-09T11:21:29;7.20;;;2.50;;
23288;SDS011;11813;50.834;4.280;2022-09-09T11:24:00;6.57;;;2.37;;
23288;SDS011;11813;50.834;4.280;2022-09-09T11:26:39;7.63;;;2.17;;
23288;SDS011;11813;50.834;4.280;2022-09-09T11:42:30;9.27;;;2.30;;
23288;SDS011;11813;50.834;4.280;2022-09-09T11:44:55;6.03;;;2.10;;
23288;SDS011;11813;50.834;4.280;2022-09-09T11:52:40;5.50;;;2.60;;
23288;SDS011;11813;50.834;4.280;2022-09-09T11:58:00;6.30;;;2.20;;
23288;SDS011;11813;50.834;4.280;2022-09-09T12:02:58;10.17;;;2.90;;
23288;SDS011;11813;50.834;4.280;2022-09-09T12:05:23;4.30;;;2.20;;
23288;SDS011;11813;50.834;4.280;2022-09-09T12:08:05;7.90;;;2.87;;
23288;SDS011;11813;50.834;4.280;2022-09-09T12:10:35;8.60;;;2.27;;
23288;SDS011;11813;50.834;4.280;2022-09-09T12:13:19;7.70;;;2.40;;
23288;SDS011;11813;50.834;4.280;2022-09-09T12:15:54;6.10;;;2.37;;
23288;SDS011;11813;50.834;4.280;2022-09-09T12:18:39;7.07;;;2.20;;
23288;SDS011;11813;50.834;4.280;2022-09-09T12:24:11;6.87;;;2.43;;
23288;SDS011;11813;50.834;4.280;2022-09-09T12:26:43;9.13;;;1.93;;
23288;SDS011;11813;50.834;4.280;2022-09-09T12:40:03;6.93;;;1.83;;
23288;SDS011;11813;50.834;4.280;2022-09-09T12:42:44;10.73;;;2.47;;
23288;SDS011;11813;50.834;4.280;2022-09-09T12:45:16;3.30;;;1.50;;
23288;SDS011;11813;50.834;4.280;2022-09-09T12:50:25;4.40;;;1.60;;
23288;SDS011;11813;50.834;4.280;2022-09-09T12:53:02;4.10;;;1.83;;
23288;SDS011;11813;50.834;4.280;2022-09-09T12:55:34;7.37;;;1.70;;
23288;SDS011;11813;50.834;4.280;2022-09-09T12:58:03;5.53;;;1.43;;
23288;SDS011;11813;50.834;4.280;2022-09-09T13:00:31;4.47;;;1.40;;
23288;SDS011;11813;50.834;4.280;2022-09-09T13:03:02;7.00;;;1.70;;
23288;SDS011;11813;50.834;4.280;2022-09-09T13:05:41;4.77;;;1.67;;
23288;SDS011;11813;50.834;4.280;2022-09-09T13:08:10;4.13;;;1.73;;
23288;SDS011;11813;50.834;4.280;2022-09-09T13:10:40;4.27;;;1.80;;
23288;SDS011;11813;50.834;4.280;2022-09-09T13:13:17;3.07;;;1.67;;
23288;SDS011;11813;50.834;4.280;2022-09-09T13:15:50;5.87;;;1.67;;
23288;SDS011;11813;50.834;4.280;2022-09-09T13:18:19;7.57;;;1.70;;
23288;SDS011;11813;50.834;4.280;2022-09-09T13:20:59;5.30;;;1.83;;
23288;SDS011;11813;50.834;4.280;2022-09-09T13:23:32;6.47;;;1.70;;
23288;SDS011;11813;50.834;4.280;2022-09-09T13:26:04;5.68;;;2.13;;
23288;SDS011;11813;50.834;4.280;2022-09-09T13:28:32;5.80;;;1.83;;
23288;SDS011;11813;50.834;4.280;2022-09-09T13:30:59;3.97;;;1.70;;
23288;SDS011;11813;50.834;4.280;2022-09-09T13:35:57;2.45;;;1.50;;
23288;SDS011;11813;50.834;4.280;2022-09-09T13:38:24;4.88;;;1.75;;
23288;SDS011;11813;50.834;4.280;2022-09-09T13:40:59;3.67;;;1.50;;
23288;SDS011;11813;50.834;4.280;2022-09-09T13:43:30;2.95;;;1.40;;
23288;SDS011;11813;50.834;4.280;2022-09-09T13:46:02;2.63;;;1.58;;
23288;SDS011;11813;50.834;4.280;2022-09-09T13:48:29;7.20;;;1.33;;
23288;SDS011;11813;50.834;4.280;2022-09-09T13:51:03;4.55;;;1.20;;
23288;SDS011;11813;50.834;4.280;2022-09-09T13:53:30;3.58;;;1.45;;
23288;SDS011;11813;50.834;4.280;2022-09-09T13:55:56;4.78;;;1.67;;
23288;SDS011;11813;50.834;4.280;2022-09-09T13:58:23;8.38;;;1.58;;
23288;SDS011;11813;50.834;4.280;2022-09-09T14:00:50;6.40;;;1.58;;
23288;SDS011;11813;50.834;4.280;2022-09-09T14:03:17;4.22;;;1.98;;
23288;SDS011;11813;50.834;4.280;2022-09-09T14:05:43;2.55;;;1.40;;
23288;SDS011;11813;50.834;4.280;2022-09-09T14:08:12;6.00;;;1.77;;
23288;SDS011;11813;50.834;4.280;2022-09-09T14:10:43;4.65;;;1.45;;
23288;SDS011;11813;50.834;4.280;2022-09-09T14:13:10;2.80;;;1.73;;
23288;SDS011;11813;50.834;4.280;2022-09-09T14:15:37;6.05;;;2.22;;
23288;SDS011;11813;50.834;4.280;2022-09-09T14:18:02;5.65;;;1.50;;
23288;SDS011;11813;50.834;4.280;2022-09-09T14:20:28;5.47;;;2.22;;
23288;SDS011;11813;50.834;4.280;2022-09-09T14:22:54;3.92;;;2.03;;
23288;SDS011;11813;50.834;4.280;2022-09-09T14:25:19;2.60;;;1.42;;
23288;SDS011;11813;50.834;4.280;2022-09-09T14:27:45;6.35;;;1.95;;
23288;SDS011;11813;50.834;4.280;2022-09-09T14:30:11;4.10;;;1.98;;
23288;SDS011;11813;50.834;4.280;2022-09-09T14:32:37;4.47;;;1.48;;
23288;SDS011;11813;50.834;4.280;2022-09-09T14:35:02;4.88;;;1.60;;
23288;SDS011;11813;50.834;4.280;2022-09-09T14:37:28;6.57;;;1.50;;
23288;SDS011;11813;50.834;4.280;2022-09-09T14:39:56;5.15;;;1.70;;
23288;SDS011;11813;50.834;4.280;2022-09-09T14:42:21;3.75;;;1.35;;
23288;SDS011;11813;50.834;4.280;2022-09-09T14:44:48;6.85;;;1.52;;
23288;SDS011;11813;50.834;4.280;2022-09-09T14:47:13;2.78;;;1.55;;
23288;SDS011;11813;50.834;4.280;2022-09-09T14:49:39;2.53;;;1.45;;
23288;SDS011;11813;50.834;4.280;2022-09-09T14:52:05;6.00;;;1.98;;
23288;SDS011;11813;50.834;4.280;2022-09-09T14:54:31;3.70;;;1.58;;
23288;SDS011;11813;50.834;4.280;2022-09-09T14:56:57;4.07;;;1.65;;
23288;SDS011;11813;50.834;4.280;2022-09-09T14:59:23;9.98;;;2.00;;
23288;SDS011;11813;50.834;4.280;2022-09-09T15:01:49;3.35;;;1.30;;
23288;SDS011;11813;50.834;4.280;2022-09-09T15:04:14;5.38;;;1.60;;
23288;SDS011;11813;50.834;4.280;2022-09-09T15:06:41;1.67;;;1.13;;
23288;SDS011;11813;50.834;4.280;2022-09-09T15:09:09;5.95;;;1.60;;
23288;SDS011;11813;50.834;4.280;2022-09-09T15:11:36;5.03;;;2.13;;
23288;SDS011;11813;50.834;4.280;2022-09-09T15:14:03;2.42;;;1.38;;
23288;SDS011;11813;50.834;4.280;2022-09-09T15:16:30;4.82;;;1.77;;
23288;SDS011;11813;50.834;4.280;2022-09-09T15:18:57;8.48;;;1.52;;
23288;SDS011;11813;50.834;4.280;2022-09-09T15:21:25;5.10;;;1.65;;
23288;SDS011;11813;50.834;4.280;2022-09-09T15:23:52;4.20;;;1.73;;
23288;SDS011;11813;50.834;4.280;2022-09-09T15:26:18;4.10;;;1.50;;
23288;SDS011;11813;50.834;4.280;2022-09-09T15:28:44;4.43;;;1.48;;
23288;SDS011;11813;50.834;4.280;2022-09-09T15:31:22;4.30;;;1.75;;
23288;SDS011;11813;50.834;4.280;2022-09-09T15:33:50;8.30;;;1.88;;
23288;SDS011;11813;50.834;4.280;2022-09-09T15:38:45;5.53;;;1.67;;
23288;SDS011;11813;50.834;4.280;2022-09-09T15:41:11;6.28;;;1.70;;
23288;SDS011;11813;50.834;4.280;2022-09-09T15:43:38;3.08;;;1.60;;
23288;SDS011;11813;50.834;4.280;2022-09-09T15:46:27;6.13;;;1.70;;
23288;SDS011;11813;50.834;4.280;2022-09-09T15:49:24;9.27;;;1.58;;
23288;SDS011;11813;50.834;4.280;2022-09-09T15:51:59;7.30;;;2.25;;
23288;SDS011;11813;50.834;4.280;2022-09-09T15:54:28;9.10;;;2.22;;
23288;SDS011;11813;50.834;4.280;2022-09-09T15:56:59;3.65;;;1.95;;
23288;SDS011;11813;50.834;4.280;2022-09-09T15:59:28;3.65;;;2.08;;
23288;SDS011;11813;50.834;4.280;2022-09-09T16:01:55;7.00;;;1.90;;
23288;SDS011;11813;50.834;4.280;2022-09-09T16:04:22;4.65;;;1.80;;
23288;SDS011;11813;50.834;4.280;2022-09-09T16:06:50;3.20;;;1.60;;
23288;SDS011;11813;50.834;4.280;2022-09-09T16:09:16;4.57;;;2.63;;
23288;SDS011;11813;50.834;4.280;2022-09-09T16:11:42;5.20;;;1.92;;
23288;SDS011;11813;50.834;4.280;2022-09-09T16:14:07;6.13;;;1.90;;
23288;SDS011;11813;50.834;4.280;2022-09-09T16:16:33;6.68;;;2.10;;
23288;SDS011;11813;50.834;4.280;2022-09-09T16:19:01;6.22;;;1.85;;
23288;SDS011;11813;50.834;4.280;2022-09-09T16:21:34;4.18;;;1.83;;
23288;SDS011;11813;50.834;4.280;2022-09-09T16:24:02;4.38;;;1.10;;
23288;SDS011;11813;50.834;4.280;2022-09-09T16:26:31;1.77;;;0.80;;
23288;SDS011;11813;50.834;4.280;2022-09-09T16:28:58;2.42;;;1.02;;
23288;SDS011;11813;50.834;4.280;2022-09-09T16:31:26;1.17;;;1.00;;
23288;SDS011;11813;50.834;4.280;2022-09-09T16:33:53;3.03;;;0.93;;
23288;SDS011;11813;50.834;4.280;2022-09-09T16:36:20;7.40;;;1.08;;
23288;SDS011;11813;50.834;4.280;2022-09-09T16:38:48;5.03;;;1.02;;
23288;SDS011;11813;50.834;4.280;2022-09-09T16:41:19;7.15;;;1.90;;
23288;SDS011;11813;50.834;4.280;2022-09-09T16:43:45;4.90;;;1.35;;
23288;SDS011;11813;50.834;4.280;2022-09-09T16:46:14;4.05;;;1.40;;
23288;SDS011;11813;50.834;4.280;2022-09-09T16:48:43;3.67;;;1.60;;
23288;SDS011;11813;50.834;4.280;2022-09-09T16:51:23;3.55;;;1.40;;
23288;SDS011;11813;50.834;4.280;2022-09-09T16:53:54;4.47;;;1.98;;
23288;SDS011;11813;50.834;4.280;2022-09-09T16:56:23;2.65;;;1.45;;
23288;SDS011;11813;50.834;4.280;2022-09-09T16:58:57;2.95;;;1.70;;
23288;SDS011;11813;50.834;4.280;2022-09-09T17:01:25;4.80;;;1.80;;
23288;SDS011;11813;50.834;4.280;2022-09-09T17:03:55;5.63;;;1.90;;
23288;SDS011;11813;50.834;4.280;2022-09-09T17:06:22;4.43;;;1.90;;
23288;SDS011;11813;50.834;4.280;2022-09-09T17:08:53;5.72;;;2.17;;
23288;SDS011;11813;50.834;4.280;2022-09-09T17:11:23;7.63;;;2.25;;
23288;SDS011;11813;50.834;4.280;2022-09-09T17:13:50;5.75;;;1.73;;
23288;SDS011;11813;50.834;4.280;2022-09-09T17:16:17;4.50;;;1.65;;
23288;SDS011;11813;50.834;4.280;2022-09-09T17:18:45;6.22;;;1.80;;
23288;SDS011;11813;50.834;4.280;2022-09-09T17:21:15;6.05;;;1.73;;
23288;SDS011;11813;50.834;4.280;2022-09-09T17:23:45;5.20;;;1.45;;
23288;SDS011;11813;50.834;4.280;2022-09-09T17:26:12;5.85;;;1.65;;